Station info - map view · info · telemetry · weather · raw · status · beacons · messages · bulletins · browse · moving · my account
Callsign, ship name or locator: Clear       
It is possible to search using wildcards (*?) after a prefix. Example: OH*
APRS station HB9HFJ-9 - show graphs
Map loading...
Comment: 37C 14.1V-GM350+TT4-All The Best
Location: 46°49.34' N 6°58.27' E - locator JN36LT67MI - show map - static map
6.4 miles West bearing 276° from Corminboeuf, District de la Sarine, Fribourg, Switzerland [?]
6.4 miles West bearing 270° from Belfaux, District de la Sarine, Fribourg, Switzerland
58.1 miles Northeast bearing 42° from Genève, Geneva, Geneva, Switzerland
83.2 miles Southwest bearing 244° from Zürich, Bezirk Zürich, Zurich, Switzerland
Last position: 2017-04-08 13:38:05 EDT (21d 21h18m ago)
2017-04-08 19:38:05 CEST local time at Corminboeuf, Switzerland [?]
Altitude: 1595 ft
Course: 152°
Speed: 32 MPH
Device: Rob Wittner, KZ5RW: APRS/CE (app)
Last path: HB9HFJ-9>APCHFR via HB4FV-4*,WIDE2-2,qAR,HB9TOR-4 (good)
Positions stored: 109036
Other SSIDs: HB9HFJ HB9HFJ-11 HB9HFJ-4 HB9HFJ-5 HB9HFJ-7 HB9HFJ-8
Stations near current position of HB9HFJ-9 - show more
callsign distance last heard - EDT      callsign distance last heard - EDT
HB9HFJ-4174.1 yards 134°2017-04-30 10:45:45 HB9HFR-92.5 miles 244°2017-04-17 07:35:55
HB9RAB-92.5 miles 243°2017-04-07 07:42:32 hb9fmk-i4.0 miles 30°2017-04-29 05:58:42
hb9pcf5.3 miles 200°2017-04-14 10:15:08 EW57585.9 miles 207°2017-04-30 10:55:25
HB9DRI-16.2 miles 78°2017-04-16 13:04:02 HB9HFM-86.3 miles 93°2017-04-30 10:40:25
HB9HFM-106.3 miles 93°2017-04-30 10:40:24 HB3YPE7.0 miles 184°2017-04-29 12:35:52
HB9GFR7.1 miles 98°2017-04-22 10:41:44 HB9RAB-47.1 miles 272°2017-04-01 09:14:56
HB9HFM-97.5 miles 99°2017-04-29 13:09:44 HB9UFI-97.8 miles 66°2017-04-06 07:40:25
HB9MHY8.1 miles 106°2017-04-23 07:03:44 EW59768.4 miles 148°2017-04-30 10:52:16
HB9DTX-99.3 miles 39°2017-04-02 10:02:52 DW764710.4 miles 179°2017-04-30 10:41:50
DW775810.4 miles 179°2017-04-30 10:49:06 HB9DWR-711.4 miles 337°2017-04-30 04:47:50
Stations which heard HB9HFJ-9 directly on radio –
callsign pkts first heard - EDT last heard longest (tx => rx) longest at - EDT
HB9BA-2 24 2017-04-08 07:23:32 2017-04-08 13:30:55 JN36MU > JN37SB 28.7 miles 60° 2017-04-08 13:30:55
HB9BA-4 5 2017-04-08 07:22:20 2017-04-08 13:00:00 JN36MV > JN37SE 32.7 miles 46° 2017-04-08 07:22:20
HB9CGH 3 2017-04-08 07:44:26 2017-04-08 07:47:56 JN36RX > JN36RW 4.8 miles 173° 2017-04-08 07:47:56
DB0SAE 8 2017-04-08 08:45:32 2017-04-08 12:11:17 JN47FK > JN47AQ 26.9 miles 311° 2017-04-08 09:05:12
HB9ONO-4 11 2017-04-08 07:16:18 2017-04-08 13:18:16 JN36LU > JN37PC 22.9 miles 34° 2017-04-08 07:16:18
HB9XC-4 1 2017-04-08 13:17:58 2017-04-08 13:17:58 JN36OX > JN37OG 20.5 miles 7° 2017-04-08 13:17:58
HB9RF-10 6 2017-04-08 08:42:15 2017-04-08 12:17:34 JN47DK > JN47GA 31.8 miles 159° 2017-04-08 12:12:15
HB9ZF-3 2 2017-04-08 08:53:50 2017-04-08 09:08:59 JN47FJ > JN47HL 12.0 miles 63° 2017-04-08 08:53:50
HB4FV-4 12 2017-04-08 07:21:59 2017-04-08 13:38:05 JN36NW > JN36EQ 39.8 miles 245° 2017-04-08 13:18:58
HB9AVQ-10 19 2017-04-08 07:41:34 2017-04-08 13:09:13 JN37SB > JN36QW 13.2 miles 216° 2017-04-08 12:55:15
HB9AW-10 1 2017-04-08 12:04:11 2017-04-08 12:04:11 JN47EK > JN47AB 31.2 miles 213° 2017-04-08 12:04:11
HB9ZZ-1 24 2017-04-08 08:35:59 2017-04-08 12:16:19 JN47BJ > JN47GJ 19.7 miles 93° 2017-04-08 08:35:59
HB9HFJ-4 5 2017-04-08 07:13:33 2017-04-08 13:37:19 JN36LU > JN36LT 1.7 miles 194° 2017-04-08 13:34:22
HB9PM-4 17 2017-04-08 07:16:05 2017-04-08 13:36:47 JN36LT > JN37SG 41.8 miles 43° 2017-04-08 13:36:47
HB3YDW-3 4 2017-04-08 07:49:53 2017-04-08 07:57:39 JN37SA > JN37RC 6.8 miles 345° 2017-04-08 07:49:53
DB0WV-10 1 2017-04-08 08:45:46 2017-04-08 08:45:46 JN47DK > JN47QT 56.8 miles 63° 2017-04-08 08:45:46
DB0TOD-10 1 2017-04-08 12:00:13 2017-04-08 12:00:13 JN47FK > JN37XS 30.2 miles 318° 2017-04-08 12:00:13
HB9FG-4 2 2017-04-08 07:14:47 2017-04-08 07:32:31 JN36LT > JN37MB 16.9 miles 16° 2017-04-08 07:14:47
HB9RF-1 2 2017-04-08 08:49:34 2017-04-08 08:56:09 JN47EK > JN47FE 17.0 miles 173° 2017-04-08 08:49:34
HB9DCR-10 1 2017-04-08 07:38:40 2017-04-08 07:38:40 JN36PW > JN36SV 9.0 miles 114° 2017-04-08 07:38:40
HB9FX-10 71 2017-04-08 08:02:50 2017-04-08 13:13:19 JN36PW > JN37XH 39.8 miles 53° 2017-04-08 13:13:19
HB9NF-10 1 2017-04-08 09:03:05 2017-04-08 09:03:05 JN47FK > JN47KJ 20.0 miles 98° 2017-04-08 09:03:05
HB9HFM-10 4 2017-04-08 07:23:17 2017-04-08 13:31:50 JN36QW > JN36NT 14.3 miles 230° 2017-04-08 13:11:42
HB9F-10 21 2017-04-08 07:38:02 2017-04-08 13:12:22 JN37UG > JN36WN 50.3 miles 174° 2017-04-08 08:15:12

Only position packets which were originated by the station are shown here. The range statistics show some extra long hops, because some digipeaters do not correctly add themselves to the digipeater path. Please check the raw packets.
About this site
This page shows real-time information collected from the Automatic Position Reporting System Internet network (APRS-IS). APRS is used by amateur (ham) radio operators to transmit real-time position information, weather data, telemetry and messages over the radio. A vehicle equipped with a GPS receiver, a VHF transmitter or HF transceiver and a small computer device called a tracker transmits it's location, speed and course in a small data packet, which is then received by a nearby iGate receiving site which forwards the packet on the Internet. Systems connected to the Internet can send information on the APRS-IS without a radio transmitter, or collect and display information transmitted anywhere in the world.
FAQ · Blog · Discussion group · Linking to aprs.fi · AIS sites · Service status · Database statistics · Advertising on aprs.fi · Technical details · API · Change log · Planned changes · Credits and thanks · Terms Of Service · iPhone/iPad APRS